sensor_id;sensor_type;location;lat;lon;timestamp;temperature;humidity
27747;DHT22;15138;51.012;4.692;2024-02-04T02:43:29;10.70;99.90
27747;DHT22;15138;51.012;4.692;2024-02-04T02:45:58;10.70;99.90
27747;DHT22;15138;51.012;4.692;2024-02-04T02:48:26;10.80;99.90
27747;DHT22;15138;51.012;4.692;2024-02-04T02:50:56;10.70;99.90
27747;DHT22;15138;51.012;4.692;2024-02-04T02:53:25;10.70;99.90
27747;DHT22;15138;51.012;4.692;2024-02-04T02:55:53;11.00;99.90
27747;DHT22;15138;51.012;4.692;2024-02-04T02:58:21;10.80;99.90
27747;DHT22;15138;51.012;4.692;2024-02-04T03:00:50;10.90;99.90
27747;DHT22;15138;51.012;4.692;2024-02-04T03:03:19;10.60;99.90
27747;DHT22;15138;51.012;4.692;2024-02-04T03:05:47;10.80;99.90
27747;DHT22;15138;51.012;4.692;2024-02-04T03:08:16;10.60;99.90
27747;DHT22;15138;51.012;4.692;2024-02-04T03:10:44;10.80;99.90
27747;DHT22;15138;51.012;4.692;2024-02-04T03:13:12;10.90;99.90
27747;DHT22;15138;51.012;4.692;2024-02-04T03:15:41;10.80;99.90
27747;DHT22;15138;51.012;4.692;2024-02-04T03:18:10;10.90;99.90
27747;DHT22;15138;51.012;4.692;2024-02-04T03:20:39;10.60;99.90
27747;DHT22;15138;51.012;4.692;2024-02-04T03:23:07;10.60;99.90
27747;DHT22;15138;51.012;4.692;2024-02-04T03:25:35;10.90;99.90
27747;DHT22;15138;51.012;4.692;2024-02-04T03:28:04;10.90;99.90
27747;DHT22;15138;51.012;4.692;2024-02-04T03:30:32;10.90;99.90
27747;DHT22;15138;51.012;4.692;2024-02-04T03:33:00;10.80;99.90
27747;DHT22;15138;51.012;4.692;2024-02-04T03:35:30;10.60;99.90
27747;DHT22;15138;51.012;4.692;2024-02-04T03:37:58;10.60;99.90
27747;DHT22;15138;51.012;4.692;2024-02-04T03:40:26;10.90;99.90
27747;DHT22;15138;51.012;4.692;2024-02-04T03:42:54;10.70;99.90
27747;DHT22;15138;51.012;4.692;2024-02-04T03:45:23;10.80;99.90
27747;DHT22;15138;51.012;4.692;2024-02-04T03:47:51;10.90;99.90
27747;DHT22;15138;51.012;4.692;2024-02-04T03:50:19;10.90;99.90
27747;DHT22;15138;51.012;4.692;2024-02-04T03:52:48;10.80;99.90
27747;DHT22;15138;51.012;4.692;2024-02-04T03:55:16;10.80;99.90
27747;DHT22;15138;51.012;4.692;2024-02-04T03:57:45;10.90;99.90
27747;DHT22;15138;51.012;4.692;2024-02-04T04:00:13;10.60;99.90
27747;DHT22;15138;51.012;4.692;2024-02-04T04:02:42;10.60;99.90
27747;DHT22;15138;51.012;4.692;2024-02-04T04:05:11;10.70;99.90
27747;DHT22;15138;51.012;4.692;2024-02-04T04:07:40;10.70;99.90
27747;DHT22;15138;51.012;4.692;2024-02-04T04:10:10;10.70;99.90
27747;DHT22;15138;51.012;4.692;2024-02-04T04:12:38;10.80;99.90
27747;DHT22;15138;51.012;4.692;2024-02-04T04:15:07;10.80;99.90
27747;DHT22;15138;51.012;4.692;2024-02-04T04:17:35;10.60;99.90
27747;DHT22;15138;51.012;4.692;2024-02-04T04:20:06;10.90;99.90
27747;DHT22;15138;51.012;4.692;2024-02-04T04:22:34;10.70;99.90
27747;DHT22;15138;51.012;4.692;2024-02-04T04:25:03;10.80;99.90
27747;DHT22;15138;51.012;4.692;2024-02-04T04:27:32;10.60;99.90
27747;DHT22;15138;51.012;4.692;2024-02-04T04:30:00;10.80;99.90
27747;DHT22;15138;51.012;4.692;2024-02-04T04:32:29;10.70;99.90
27747;DHT22;15138;51.012;4.692;2024-02-04T04:34:58;10.80;99.90
27747;DHT22;15138;51.012;4.692;2024-02-04T04:37:26;10.60;99.90
27747;DHT22;15138;51.012;4.692;2024-02-04T04:39:54;10.80;99.90
27747;DHT22;15138;51.012;4.692;2024-02-04T04:42:23;10.60;99.90
27747;DHT22;15138;51.012;4.692;2024-02-04T04:44:52;10.70;99.90
27747;DHT22;15138;51.012;4.692;2024-02-04T04:47:21;10.70;99.90
27747;DHT22;15138;51.012;4.692;2024-02-04T04:49:49;10.60;99.90
27747;DHT22;15138;51.012;4.692;2024-02-04T04:52:17;10.80;99.90
27747;DHT22;15138;51.012;4.692;2024-02-04T04:54:45;10.80;99.90
27747;DHT22;15138;51.012;4.692;2024-02-04T04:57:14;10.80;99.90
27747;DHT22;15138;51.012;4.692;2024-02-04T04:59:42;10.80;99.90
27747;DHT22;15138;51.012;4.692;2024-02-04T05:02:11;10.80;99.90
27747;DHT22;15138;51.012;4.692;2024-02-04T05:04:42;10.70;99.90
27747;DHT22;15138;51.012;4.692;2024-02-04T05:07:11;10.70;99.90
27747;DHT22;15138;51.012;4.692;2024-02-04T05:09:40;10.70;99.90
27747;DHT22;15138;51.012;4.692;2024-02-04T05:12:08;10.70;99.90
27747;DHT22;15138;51.012;4.692;2024-02-04T05:14:37;10.80;99.90
27747;DHT22;15138;51.012;4.692;2024-02-04T05:17:05;10.80;99.90
27747;DHT22;15138;51.012;4.692;2024-02-04T05:19:35;10.60;99.90
27747;DHT22;15138;51.012;4.692;2024-02-04T05:22:03;10.50;99.90
27747;DHT22;15138;51.012;4.692;2024-02-04T05:24:32;10.50;99.90
27747;DHT22;15138;51.012;4.692;2024-02-04T05:27:00;10.70;99.90
27747;DHT22;15138;51.012;4.692;2024-02-04T05:29:30;10.50;99.90
27747;DHT22;15138;51.012;4.692;2024-02-04T05:31:58;10.70;99.90
27747;DHT22;15138;51.012;4.692;2024-02-04T05:34:26;10.50;99.90
27747;DHT22;15138;51.012;4.692;2024-02-04T05:36:58;10.40;99.90
27747;DHT22;15138;51.012;4.692;2024-02-04T05:39:27;10.70;99.90
27747;DHT22;15138;51.012;4.692;2024-02-04T05:41:55;10.50;99.90
27747;DHT22;15138;51.012;4.692;2024-02-04T05:44:23;10.50;99.90
27747;DHT22;15138;51.012;4.692;2024-02-04T05:46:51;10.70;99.90
27747;DHT22;15138;51.012;4.692;2024-02-04T05:49:19;10.50;99.90
27747;DHT22;15138;51.012;4.692;2024-02-04T05:51:48;10.80;99.90
27747;DHT22;15138;51.012;4.692;2024-02-04T05:54:17;10.50;99.90
27747;DHT22;15138;51.012;4.692;2024-02-04T05:56:45;10.70;99.90
27747;DHT22;15138;51.012;4.692;2024-02-04T05:59:14;10.80;99.90
27747;DHT22;15138;51.012;4.692;2024-02-04T06:01:42;10.60;99.90
27747;DHT22;15138;51.012;4.692;2024-02-04T06:04:12;10.60;99.90
27747;DHT22;15138;51.012;4.692;2024-02-04T06:06:40;10.40;99.90
27747;DHT22;15138;51.012;4.692;2024-02-04T06:09:08;10.70;99.90
27747;DHT22;15138;51.012;4.692;2024-02-04T06:11:38;10.80;99.90
27747;DHT22;15138;51.012;4.692;2024-02-04T06:14:06;10.40;99.90
27747;DHT22;15138;51.012;4.692;2024-02-04T06:16:35;10.70;99.90
27747;DHT22;15138;51.012;4.692;2024-02-04T06:19:03;10.80;99.90
27747;DHT22;15138;51.012;4.692;2024-02-04T06:21:31;10.70;99.90
27747;DHT22;15138;51.012;4.692;2024-02-04T06:23:59;10.80;99.90
27747;DHT22;15138;51.012;4.692;2024-02-04T06:26:28;10.70;99.90
27747;DHT22;15138;51.012;4.692;2024-02-04T06:28:58;10.60;99.90
27747;DHT22;15138;51.012;4.692;2024-02-04T06:31:27;10.40;99.90
27747;DHT22;15138;51.012;4.692;2024-02-04T06:33:55;10.40;99.90
27747;DHT22;15138;51.012;4.692;2024-02-04T06:36:23;10.60;99.90
27747;DHT22;15138;51.012;4.692;2024-02-04T06:38:51;10.60;99.90
27747;DHT22;15138;51.012;4.692;2024-02-04T06:41:19;10.50;99.90
27747;DHT22;15138;51.012;4.692;2024-02-04T06:43:47;10.70;99.90
27747;DHT22;15138;51.012;4.692;2024-02-04T06:46:25;10.80;99.90
27747;DHT22;15138;51.012;4.692;2024-02-04T06:48:54;10.60;99.90
27747;DHT22;15138;51.012;4.692;2024-02-04T06:51:22;10.80;99.90
27747;DHT22;15138;51.012;4.692;2024-02-04T06:53:51;10.80;99.90
27747;DHT22;15138;51.012;4.692;2024-02-04T06:56:19;10.70;99.90
27747;DHT22;15138;51.012;4.692;2024-02-04T06:58:47;10.80;99.90
27747;DHT22;15138;51.012;4.692;2024-02-04T07:01:15;10.70;99.90
27747;DHT22;15138;51.012;4.692;2024-02-04T07:03:45;10.50;99.90
27747;DHT22;15138;51.012;4.692;2024-02-04T07:06:13;10.80;99.90
27747;DHT22;15138;51.012;4.692;2024-02-04T07:08:41;10.80;99.90
27747;DHT22;15138;51.012;4.692;2024-02-04T07:11:10;10.80;99.90
27747;DHT22;15138;51.012;4.692;2024-02-04T07:13:38;10.80;99.90
27747;DHT22;15138;51.012;4.692;2024-02-04T07:16:06;10.50;99.90
27747;DHT22;15138;51.012;4.692;2024-02-04T07:18:34;10.60;99.90
27747;DHT22;15138;51.012;4.692;2024-02-04T07:21:04;10.60;99.90
27747;DHT22;15138;51.012;4.692;2024-02-04T07:23:32;10.80;99.90
27747;DHT22;15138;51.012;4.692;2024-02-04T07:26:00;10.40;99.90
27747;DHT22;15138;51.012;4.692;2024-02-04T07:28:28;10.70;99.90
27747;DHT22;15138;51.012;4.692;2024-02-04T07:30:57;10.80;99.90
27747;DHT22;15138;51.012;4.692;2024-02-04T07:33:25;10.70;99.90
27747;DHT22;15138;51.012;4.692;2024-02-04T07:35:56;10.50;99.90
27747;DHT22;15138;51.012;4.692;2024-02-04T07:38:26;10.70;99.90
27747;DHT22;15138;51.012;4.692;2024-02-04T07:40:54;10.70;99.90
27747;DHT22;15138;51.012;4.692;2024-02-04T07:43:25;10.70;99.90
27747;DHT22;15138;51.012;4.692;2024-02-04T07:45:53;10.80;99.90
27747;DHT22;15138;51.012;4.692;2024-02-04T07:48:22;10.70;99.90
27747;DHT22;15138;51.012;4.692;2024-02-04T07:50:50;10.80;99.90
27747;DHT22;15138;51.012;4.692;2024-02-04T07:53:18;10.60;99.90
27747;DHT22;15138;51.012;4.692;2024-02-04T07:55:48;10.80;99.90
27747;DHT22;15138;51.012;4.692;2024-02-04T07:58:17;10.60;99.90
27747;DHT22;15138;51.012;4.692;2024-02-04T08:00:46;10.50;99.90
27747;DHT22;15138;51.012;4.692;2024-02-04T08:03:14;10.60;99.90
27747;DHT22;15138;51.012;4.692;2024-02-04T08:05:42;10.70;99.90
27747;DHT22;15138;51.012;4.692;2024-02-04T08:08:10;10.80;99.90
27747;DHT22;15138;51.012;4.692;2024-02-04T08:10:39;10.60;99.90
27747;DHT22;15138;51.012;4.692;2024-02-04T08:13:08;10.90;99.90
27747;DHT22;15138;51.012;4.692;2024-02-04T08:15:37;11.00;99.90
27747;DHT22;15138;51.012;4.692;2024-02-04T08:18:05;10.60;99.90
27747;DHT22;15138;51.012;4.692;2024-02-04T08:23:03;10.90;99.90
27747;DHT22;15138;51.012;4.692;2024-02-04T08:25:31;10.70;99.90
27747;DHT22;15138;51.012;4.692;2024-02-04T08:27:59;10.90;99.90
27747;DHT22;15138;51.012;4.692;2024-02-04T08:30:29;10.90;99.90
27747;DHT22;15138;51.012;4.692;2024-02-04T08:32:59;11.50;99.90
27747;DHT22;15138;51.012;4.692;2024-02-04T08:35:27;11.10;99.90
27747;DHT22;15138;51.012;4.692;2024-02-04T08:37:56;10.70;99.90
27747;DHT22;15138;51.012;4.692;2024-02-04T08:50:27;10.90;99.90
27747;DHT22;15138;51.012;4.692;2024-02-04T08:52:55;10.90;99.90
27747;DHT22;15138;51.012;4.692;2024-02-04T08:55:25;11.00;99.90
27747;DHT22;15138;51.012;4.692;2024-02-04T09:20:17;11.30;99.90
27747;DHT22;15138;51.012;4.692;2024-02-04T09:22:45;11.20;99.90
27747;DHT22;15138;51.012;4.692;2024-02-04T09:25:14;10.90;99.90
27747;DHT22;15138;51.012;4.692;2024-02-04T09:27:42;11.00;99.90
27747;DHT22;15138;51.012;4.692;2024-02-04T09:30:12;10.80;99.90
27747;DHT22;15138;51.012;4.692;2024-02-04T09:32:40;11.40;99.90
27747;DHT22;15138;51.012;4.692;2024-02-04T09:35:09;11.20;99.90
27747;DHT22;15138;51.012;4.692;2024-02-04T09:37:39;11.20;99.90
27747;DHT22;15138;51.012;4.692;2024-02-04T19:31:48;11.30;1.00
27747;DHT22;15138;51.012;4.692;2024-02-04T19:34:16;11.30;1.00
27747;DHT22;15138;51.012;4.692;2024-02-04T19:36:45;11.10;99.90
27747;DHT22;15138;51.012;4.692;2024-02-04T19:39:14;11.20;1.00
27747;DHT22;15138;51.012;4.692;2024-02-04T19:41:42;11.20;99.90
27747;DHT22;15138;51.012;4.692;2024-02-04T19:44:11;11.10;99.90
27747;DHT22;15138;51.012;4.692;2024-02-04T19:46:39;11.00;99.90
27747;DHT22;15138;51.012;4.692;2024-02-04T19:49:08;11.00;1.00
27747;DHT22;15138;51.012;4.692;2024-02-04T19:51:37;11.00;1.00
27747;DHT22;15138;51.012;4.692;2024-02-04T19:54:05;11.00;1.00
27747;DHT22;15138;51.012;4.692;2024-02-04T19:56:34;11.00;1.00
27747;DHT22;15138;51.012;4.692;2024-02-04T19:59:02;11.10;1.00
27747;DHT22;15138;51.012;4.692;2024-02-04T20:01:31;11.10;1.00
27747;DHT22;15138;51.012;4.692;2024-02-04T20:04:00;11.10;1.00
27747;DHT22;15138;51.012;4.692;2024-02-04T20:06:29;10.90;1.00
27747;DHT22;15138;51.012;4.692;2024-02-04T20:08:58;11.00;1.00
27747;DHT22;15138;51.012;4.692;2024-02-04T20:11:26;11.00;1.00
27747;DHT22;15138;51.012;4.692;2024-02-04T20:13:59;10.90;1.00
27747;DHT22;15138;51.012;4.692;2024-02-04T20:16:30;11.10;8.70
27747;DHT22;15138;51.012;4.692;2024-02-04T20:18:58;11.00;9.60
27747;DHT22;15138;51.012;4.692;2024-02-04T20:21:34;10.90;30.10
27747;DHT22;15138;51.012;4.692;2024-02-04T20:24:03;11.00;23.10
27747;DHT22;15138;51.012;4.692;2024-02-04T20:26:32;10.90;31.00
27747;DHT22;15138;51.012;4.692;2024-02-04T20:29:01;10.90;30.50
27747;DHT22;15138;51.012;4.692;2024-02-04T20:31:29;10.90;40.90
27747;DHT22;15138;51.012;4.692;2024-02-04T20:33:58;10.90;34.50
27747;DHT22;15138;51.012;4.692;2024-02-04T20:36:26;10.90;34.20
27747;DHT22;15138;51.012;4.692;2024-02-04T20:38:56;11.00;24.70
27747;DHT22;15138;51.012;4.692;2024-02-04T20:41:24;11.10;8.80
27747;DHT22;15138;51.012;4.692;2024-02-04T20:43:52;11.00;13.40
27747;DHT22;15138;51.012;4.692;2024-02-04T20:48:51;11.00;1.00
27747;DHT22;15138;51.012;4.692;2024-02-04T20:51:19;11.20;1.00
27747;DHT22;15138;51.012;4.692;2024-02-04T20:53:51;11.00;1.00
27747;DHT22;15138;51.012;4.692;2024-02-04T20:56:21;11.00;1.00
27747;DHT22;15138;51.012;4.692;2024-02-04T20:58:49;11.00;1.00
27747;DHT22;15138;51.012;4.692;2024-02-04T21:01:17;11.10;1.00
27747;DHT22;15138;51.012;4.692;2024-02-04T21:03:47;11.10;1.00
27747;DHT22;15138;51.012;4.692;2024-02-04T21:06:16;11.10;1.00
27747;DHT22;15138;51.012;4.692;2024-02-04T21:08:45;11.00;99.90
27747;DHT22;15138;51.012;4.692;2024-02-04T21:11:20;11.10;99.90
27747;DHT22;15138;51.012;4.692;2024-02-04T21:13:49;11.10;99.90
27747;DHT22;15138;51.012;4.692;2024-02-04T21:16:18;11.10;45.90
27747;DHT22;15138;51.012;4.692;2024-02-04T21:18:47;11.10;1.00
27747;DHT22;15138;51.012;4.692;2024-02-04T21:21:15;11.10;99.90
27747;DHT22;15138;51.012;4.692;2024-02-04T21:23:43;11.10;99.90
27747;DHT22;15138;51.012;4.692;2024-02-04T21:26:12;11.20;99.90
27747;DHT22;15138;51.012;4.692;2024-02-04T21:28:41;11.30;20.30
27747;DHT22;15138;51.012;4.692;2024-02-04T21:31:10;11.10;1.00
27747;DHT22;15138;51.012;4.692;2024-02-04T21:33:38;11.10;99.90
27747;DHT22;15138;51.012;4.692;2024-02-04T21:36:09;11.20;99.90
27747;DHT22;15138;51.012;4.692;2024-02-04T21:38:38;11.20;49.20
27747;DHT22;15138;51.012;4.692;2024-02-04T21:41:06;11.30;99.90
27747;DHT22;15138;51.012;4.692;2024-02-04T21:43:34;11.30;99.90
27747;DHT22;15138;51.012;4.692;2024-02-04T21:46:06;11.30;96.30
27747;DHT22;15138;51.012;4.692;2024-02-04T21:48:35;11.20;1.00
27747;DHT22;15138;51.012;4.692;2024-02-04T21:51:04;11.20;1.00
27747;DHT22;15138;51.012;4.692;2024-02-04T21:53:32;11.20;99.90
27747;DHT22;15138;51.012;4.692;2024-02-04T21:56:00;11.30;99.90
27747;DHT22;15138;51.012;4.692;2024-02-04T21:58:28;11.20;99.90
27747;DHT22;15138;51.012;4.692;2024-02-04T22:00:57;11.10;17.90
27747;DHT22;15138;51.012;4.692;2024-02-04T22:03:27;11.20;1.00
27747;DHT22;15138;51.012;4.692;2024-02-04T22:05:55;11.20;1.00
27747;DHT22;15138;51.012;4.692;2024-02-04T22:08:23;11.20;1.00
27747;DHT22;15138;51.012;4.692;2024-02-04T22:10:51;11.30;1.00
27747;DHT22;15138;51.012;4.692;2024-02-04T22:13:19;11.20;99.90
27747;DHT22;15138;51.012;4.692;2024-02-04T22:15:48;11.30;99.90
27747;DHT22;15138;51.012;4.692;2024-02-04T22:18:16;11.20;99.90
27747;DHT22;15138;51.012;4.692;2024-02-04T22:20:45;11.30;99.90
27747;DHT22;15138;51.012;4.692;2024-02-04T22:23:14;11.30;38.60
27747;DHT22;15138;51.012;4.692;2024-02-04T22:25:42;11.20;1.00
27747;DHT22;15138;51.012;4.692;2024-02-04T22:28:10;11.30;1.00
27747;DHT22;15138;51.012;4.692;2024-02-04T22:30:39;11.30;1.00
27747;DHT22;15138;51.012;4.692;2024-02-04T22:33:09;11.30;99.90
27747;DHT22;15138;51.012;4.692;2024-02-04T22:35:38;11.20;99.90
27747;DHT22;15138;51.012;4.692;2024-02-04T22:38:07;11.20;99.90
27747;DHT22;15138;51.012;4.692;2024-02-04T22:40:36;11.20;99.90
27747;DHT22;15138;51.012;4.692;2024-02-04T22:43:06;11.30;99.90
27747;DHT22;15138;51.012;4.692;2024-02-04T22:45:35;11.30;12.00
27747;DHT22;15138;51.012;4.692;2024-02-04T22:48:04;11.30;1.00
27747;DHT22;15138;51.012;4.692;2024-02-04T22:50:33;11.20;1.00
27747;DHT22;15138;51.012;4.692;2024-02-04T22:53:03;11.30;1.00
27747;DHT22;15138;51.012;4.692;2024-02-04T22:55:34;11.40;99.90
27747;DHT22;15138;51.012;4.692;2024-02-04T22:58:02;11.30;99.90
27747;DHT22;15138;51.012;4.692;2024-02-04T23:00:32;11.40;99.90
27747;DHT22;15138;51.012;4.692;2024-02-04T23:03:00;11.40;99.90
27747;DHT22;15138;51.012;4.692;2024-02-04T23:05:28;11.30;99.90
27747;DHT22;15138;51.012;4.692;2024-02-04T23:07:57;11.30;99.60
27747;DHT22;15138;51.012;4.692;2024-02-04T23:10:26;11.30;19.40
27747;DHT22;15138;51.012;4.692;2024-02-04T23:12:57;11.30;1.00
27747;DHT22;15138;51.012;4.692;2024-02-04T23:15:26;11.30;1.00
27747;DHT22;15138;51.012;4.692;2024-02-04T23:17:57;11.20;1.00
27747;DHT22;15138;51.012;4.692;2024-02-04T23:22:55;11.30;99.90
27747;DHT22;15138;51.012;4.692;2024-02-04T23:25:23;11.20;64.00
27747;DHT22;15138;51.012;4.692;2024-02-04T23:27:53;11.20;1.00
27747;DHT22;15138;51.012;4.692;2024-02-04T23:30:23;11.20;1.00
27747;DHT22;15138;51.012;4.692;2024-02-04T23:32:51;11.20;1.00
27747;DHT22;15138;51.012;4.692;2024-02-04T23:35:20;11.20;1.00
27747;DHT22;15138;51.012;4.692;2024-02-04T23:37:48;11.20;1.00
27747;DHT22;15138;51.012;4.692;2024-02-04T23:40:17;11.20;1.00
27747;DHT22;15138;51.012;4.692;2024-02-04T23:42:45;11.30;1.00
27747;DHT22;15138;51.012;4.692;2024-02-04T23:45:14;11.20;1.00
27747;DHT22;15138;51.012;4.692;2024-02-04T23:47:43;11.20;1.00
27747;DHT22;15138;51.012;4.692;2024-02-04T23:50:11;11.20;1.00
27747;DHT22;15138;51.012;4.692;2024-02-04T23:52:40;11.20;1.00
27747;DHT22;15138;51.012;4.692;2024-02-04T23:55:08;11.20;1.00
27747;DHT22;15138;51.012;4.692;2024-02-04T23:57:37;11.20;1.00
